createdAt,value
2022-11-10T00:00:55.933Z,93.62
2022-11-10T00:05:57.433Z,93.40
2022-11-10T00:10:58.871Z,92.99
2022-11-10T00:16:24.470Z,93.33
2022-11-10T00:21:25.729Z,93.29
2022-11-10T00:26:27.046Z,93.05
2022-11-10T00:31:28.397Z,92.76
2022-11-10T00:36:30.301Z,92.91
2022-11-10T00:41:32.098Z,92.60
2022-11-10T00:46:33.428Z,92.65
2022-11-10T00:51:34.765Z,92.63
2022-11-10T00:56:36.063Z,92.46
2022-11-10T01:01:37.406Z,92.52
2022-11-10T01:06:39.075Z,92.44
2022-11-10T01:11:40.426Z,92.60
2022-11-10T01:16:41.734Z,92.45
2022-11-10T01:21:43.253Z,92.04
2022-11-10T01:26:44.557Z,91.41
2022-11-10T01:31:45.888Z,91.53
2022-11-10T01:36:47.216Z,92.12
2022-11-10T01:41:48.602Z,91.87
2022-11-10T01:46:49.872Z,92.06
2022-11-10T01:52:00.534Z,92.33
2022-11-10T01:57:07.716Z,92.26
2022-11-10T02:02:28.369Z,92.22
2022-11-10T02:07:31.732Z,92.01
2022-11-10T02:12:39.172Z,92.74
2022-11-10T02:17:41.784Z,92.90
2022-11-10T02:22:43.061Z,93.43
2022-11-10T02:27:44.444Z,93.20
2022-11-10T02:32:46.036Z,93.14
2022-11-10T02:37:47.352Z,93.31
2022-11-10T02:42:48.788Z,93.41
2022-11-10T02:47:50.283Z,93.18
2022-11-10T02:52:51.665Z,92.96
2022-11-10T02:57:53.097Z,92.38
2022-11-10T03:02:58.290Z,92.56
2022-11-10T03:08:02.276Z,92.71
2022-11-10T03:13:03.722Z,92.95
2022-11-10T03:18:05.244Z,92.69
2022-11-10T03:23:07.141Z,92.81
2022-11-10T03:28:08.920Z,92.97
2022-11-10T03:33:10.161Z,92.39
2022-11-10T03:38:11.471Z,92.33
2022-11-10T03:43:12.711Z,92.75
2022-11-10T03:48:13.975Z,92.07
2022-11-10T03:53:15.215Z,91.75
2022-11-10T03:58:16.497Z,91.90
2022-11-10T04:03:17.767Z,91.79
2022-11-10T04:08:37.735Z,92.08
2022-11-10T04:13:57.513Z,91.21
2022-11-10T04:18:58.761Z,91.24
2022-11-10T04:24:00.048Z,91.16
2022-11-10T04:29:03.576Z,91.54
2022-11-10T04:34:10.678Z,91.87
2022-11-10T04:39:12.129Z,92.61
2022-11-10T04:44:13.453Z,92.77
2022-11-10T04:49:14.811Z,92.93
2022-11-10T04:54:16.191Z,94.30
2022-11-10T04:59:17.442Z,94.28
2022-11-10T05:04:18.747Z,93.94
2022-11-10T05:09:20.123Z,94.22
2022-11-10T05:14:21.428Z,94.80
2022-11-10T05:19:22.728Z,95.02
2022-11-10T05:24:23.975Z,95.30
2022-11-10T05:29:25.245Z,96.64
2022-11-10T05:34:26.616Z,97.06
2022-11-10T05:39:27.987Z,96.22
2022-11-10T05:44:29.255Z,96.14
2022-11-10T05:49:30.603Z,95.98
2022-11-10T05:54:31.983Z,96.24
2022-11-10T05:59:33.326Z,96.38
2022-11-10T06:04:34.620Z,96.68
2022-11-10T06:09:36.456Z,98.23
2022-11-10T06:14:37.791Z,98.63
2022-11-10T06:19:39.086Z,98.20
2022-11-10T06:24:40.389Z,98.12
2022-11-10T06:29:41.849Z,98.75
2022-11-10T06:34:43.783Z,99.25
2022-11-10T06:39:46.388Z,99.42
2022-11-10T06:44:47.689Z,99.09
2022-11-10T06:49:48.959Z,99.42
2022-11-10T06:54:50.325Z,99.58
2022-11-10T06:59:51.657Z,99.43
2022-11-10T07:04:52.948Z,99.61
2022-11-10T07:09:55.309Z,100.00
2022-11-10T07:14:56.603Z,99.34
2022-11-10T07:19:57.940Z,98.08
2022-11-10T07:24:59.248Z,100.00
2022-11-10T07:30:00.536Z,97.15
2022-11-10T07:35:01.792Z,97.00
2022-11-10T07:40:03.850Z,95.58
2022-11-10T07:45:05.726Z,94.42
2022-11-10T07:50:07.690Z,94.28
2022-11-10T07:55:09.308Z,93.23
2022-11-10T08:00:12.588Z,92.42
2022-11-10T08:05:13.978Z,92.45
2022-11-10T08:10:15.499Z,92.64
2022-11-10T08:15:16.915Z,92.24
2022-11-10T08:20:18.664Z,91.75
2022-11-10T08:25:20.003Z,91.49
2022-11-10T08:30:21.370Z,92.30
2022-11-10T08:35:24.864Z,92.28
2022-11-10T08:40:27.659Z,91.06
2022-11-10T08:45:29.335Z,90.28
2022-11-10T08:50:31.305Z,89.47
2022-11-10T08:55:32.737Z,87.38
2022-11-10T09:00:34.752Z,86.01
2022-11-10T09:05:37.279Z,84.43
2022-11-10T09:10:41.502Z,82.71
2022-11-10T09:15:43.563Z,80.68
2022-11-10T09:20:44.897Z,78.38
2022-11-10T09:25:52.142Z,75.23
2022-11-10T09:30:53.696Z,71.20
2022-11-10T09:35:59.550Z,63.87
2022-11-10T09:41:04.316Z,57.92
2022-11-10T09:46:16.032Z,54.01
2022-11-10T09:51:30.791Z,52.97
2022-11-10T09:56:34.882Z,53.80
2022-11-10T10:01:50.162Z,56.20
2022-11-10T10:07:11.960Z,57.28
2022-11-10T10:12:45.885Z,59.20
2022-11-10T10:17:59.089Z,56.11
2022-11-10T10:23:17.738Z,60.92
2022-11-10T10:28:19.207Z,58.30
2022-11-10T10:33:22.157Z,49.66
2022-11-10T10:38:32.526Z,51.14
2022-11-10T10:43:33.927Z,46.87
2022-11-10T10:48:36.322Z,51.17
2022-11-10T10:53:48.025Z,48.92
2022-11-10T10:58:55.472Z,53.22
2022-11-10T11:03:57.705Z,49.76
2022-11-10T11:09:23.220Z,52.09
2022-11-10T11:14:27.499Z,51.93
2022-11-10T11:19:35.092Z,47.65
2022-11-10T11:24:53.239Z,42.66
2022-11-10T11:30:09.415Z,37.11
2022-11-10T11:35:26.660Z,33.38
2022-11-10T11:40:41.881Z,28.83
2022-11-10T11:45:59.259Z,26.08
2022-11-10T11:51:12.187Z,27.25
2022-11-10T11:56:40.975Z,37.15
2022-11-10T12:02:04.087Z,34.58
2022-11-10T12:07:36.258Z,34.12
2022-11-10T12:13:07.131Z,33.50
2022-11-10T12:18:17.541Z,30.45
2022-11-10T12:23:41.005Z,28.87
2022-11-10T12:28:55.036Z,35.20
2022-11-10T12:34:05.979Z,40.56
2022-11-10T12:39:46.562Z,43.09
2022-11-10T12:45:17.241Z,41.21
2022-11-10T12:50:44.562Z,30.26
2022-11-10T12:56:00.395Z,28.57
2022-11-10T13:01:05.155Z,27.46
2022-11-10T13:06:24.382Z,26.58
2022-11-10T13:11:34.125Z,24.79
2022-11-10T13:16:41.757Z,25.14
2022-11-10T13:21:52.275Z,23.77
2022-11-10T13:26:55.215Z,24.57
2022-11-10T13:32:17.881Z,24.00
2022-11-10T13:37:34.632Z,24.45
2022-11-10T13:42:36.239Z,25.42
2022-11-10T13:47:41.680Z,27.02
2022-11-10T13:53:01.579Z,28.28
2022-11-10T13:58:06.021Z,30.55
2022-11-10T14:03:07.990Z,36.44
2022-11-10T14:08:09.255Z,36.06
2022-11-10T14:13:41.648Z,38.93
2022-11-10T14:18:49.042Z,41.97
2022-11-10T14:24:05.062Z,44.42
2022-11-10T14:29:38.185Z,47.58
2022-11-10T14:34:49.397Z,43.46
2022-11-10T14:39:54.524Z,41.36
2022-11-10T14:45:07.664Z,39.80
2022-11-10T14:50:14.862Z,38.24
2022-11-10T14:55:20.703Z,41.96
2022-11-10T15:00:26.152Z,47.43
2022-11-10T15:05:29.928Z,51.17
2022-11-10T15:10:40.441Z,52.87
2022-11-10T15:15:42.004Z,54.42
2022-11-10T15:20:45.051Z,55.93
2022-11-10T15:25:52.835Z,57.03
2022-11-10T15:30:58.310Z,58.08
2022-11-10T15:36:27.886Z,59.43
2022-11-10T15:41:32.628Z,60.10
2022-11-10T15:46:33.943Z,61.54
2022-11-10T15:51:35.273Z,61.78
2022-11-10T15:56:36.654Z,61.84
2022-11-10T16:01:38.401Z,62.86
2022-11-10T16:06:40.150Z,63.63
2022-11-10T16:11:44.561Z,63.83
2022-11-10T16:16:45.901Z,63.97
2022-11-10T16:21:47.181Z,64.60
2022-11-10T16:26:48.585Z,64.96
2022-11-10T16:31:50.583Z,65.73
2022-11-10T16:36:51.949Z,65.98
2022-11-10T16:41:53.477Z,65.95
2022-11-10T16:46:58.714Z,66.69
2022-11-10T16:52:08.064Z,67.57
2022-11-10T16:57:14.141Z,67.93
2022-11-10T17:02:30.761Z,67.82
2022-11-10T17:07:33.588Z,68.48
2022-11-10T17:12:34.992Z,69.55
2022-11-10T17:17:36.715Z,69.00
2022-11-10T17:22:38.231Z,68.97
2022-11-10T17:27:39.585Z,69.68
2022-11-10T17:33:03.733Z,70.15
2022-11-10T17:38:02.182Z,71.30
2022-11-10T17:43:03.724Z,70.69
2022-11-10T17:48:05.528Z,71.53
2022-11-10T17:53:22.218Z,71.47
2022-11-10T17:58:23.799Z,71.78
2022-11-10T18:03:25.293Z,72.57
2022-11-10T18:08:26.793Z,72.98
2022-11-10T18:13:28.063Z,73.07
2022-11-10T18:18:29.386Z,73.84
2022-11-10T18:23:30.922Z,73.88
2022-11-10T18:28:33.383Z,73.86
2022-11-10T18:33:35.023Z,73.89
2022-11-10T18:38:36.418Z,75.18
2022-11-10T18:43:37.764Z,75.11
2022-11-10T18:48:39.180Z,75.33
2022-11-10T18:53:40.626Z,76.02
2022-11-10T18:58:42.657Z,75.21
2022-11-10T19:03:44.988Z,75.08
2022-11-10T19:08:46.487Z,76.17
2022-11-10T19:13:48.241Z,76.05
2022-11-10T19:18:49.689Z,76.28
2022-11-10T19:23:54.947Z,76.27
2022-11-10T19:28:56.717Z,76.55
2022-11-10T19:33:58.283Z,76.99
2022-11-10T19:38:59.637Z,77.51
2022-11-10T19:44:00.974Z,76.95
2022-11-10T19:49:04.229Z,77.68
2022-11-10T19:54:05.856Z,78.22
2022-11-10T19:59:08.049Z,77.69
2022-11-10T20:04:09.870Z,78.14
2022-11-10T20:09:11.182Z,77.76
2022-11-10T20:14:12.457Z,78.44
2022-11-10T20:19:13.860Z,79.02
2022-11-10T20:24:15.176Z,79.46
2022-11-10T20:29:16.448Z,79.58
2022-11-10T20:34:17.740Z,80.51
2022-11-10T20:39:19.017Z,80.33
2022-11-10T20:44:20.307Z,80.68
2022-11-10T20:49:21.637Z,80.72
2022-11-10T20:54:22.892Z,81.05
2022-11-10T20:59:24.180Z,81.56
2022-11-10T21:04:25.498Z,81.64
2022-11-10T21:09:27.644Z,81.47
2022-11-10T21:14:28.954Z,81.20
2022-11-10T21:19:34.420Z,81.39
2022-11-10T21:24:35.708Z,81.47
2022-11-10T21:29:37.050Z,81.95
2022-11-10T21:34:38.638Z,81.80
2022-11-10T21:39:40.660Z,82.19
2022-11-10T21:44:41.899Z,81.83
2022-11-10T21:49:43.199Z,82.66
2022-11-10T21:54:44.457Z,83.35
2022-11-10T21:59:45.722Z,83.91
2022-11-10T22:04:46.986Z,83.83
2022-11-10T22:10:06.956Z,83.40
2022-11-10T22:15:32.468Z,83.60
2022-11-10T22:20:33.827Z,83.63
2022-11-10T22:25:35.661Z,83.97
2022-11-10T22:30:37.670Z,84.55
2022-11-10T22:35:45.028Z,83.46
2022-11-10T22:41:05.131Z,83.44
2022-11-10T22:46:06.383Z,83.46
2022-11-10T22:51:07.627Z,83.79
2022-11-10T22:56:09.134Z,84.32
2022-11-10T23:01:11.416Z,84.31
2022-11-10T23:06:12.901Z,83.68
2022-11-10T23:11:20.310Z,83.41
2022-11-10T23:16:27.153Z,84.05
2022-11-10T23:21:30.342Z,84.23
2022-11-10T23:26:33.773Z,83.79
2022-11-10T23:31:35.155Z,84.23
2022-11-10T23:36:36.415Z,84.40
2022-11-10T23:41:37.682Z,83.44
2022-11-10T23:46:38.943Z,83.67
2022-11-10T23:51:40.215Z,83.45
2022-11-10T23:56:41.618Z,83.49
